Time;durP1;ratioP1;P1;durP2;ratioP2;P2;SDS_P1;SDS_P2;PMS_P1;PMS_P2;Temp;Humidity;BMP_temperature;BMP_pressure;BME280_temperature;BME280_humidity;BME280_pressure;Samples;Min_cycle;Max_cycle;Signal;HPM_P1;HPM_P2
2024/02/18 00:02:01;;;;;;;10.90;4.78;;;11.30;99.90;;;;;;4998630;28;20032;-75
2024/02/18 00:04:28;;;;;;;9.38;4.28;;;11.30;99.90;;;;;;4998848;28;20031;-75
2024/02/18 00:06:53;;;;;;;11.85;4.30;;;11.30;99.90;;;;;;5006207;28;20569;-75
2024/02/18 00:09:19;;;;;;;12.27;4.85;;;11.30;99.90;;;;;;4997646;28;20021;-75
2024/02/18 00:11:45;;;;;;;10.63;4.32;;;11.30;99.90;;;;;;4995444;28;20019;-75
2024/02/18 00:14:11;;;;;;;13.80;4.50;;;11.30;99.90;;;;;;4985144;28;20129;-75
2024/02/18 00:16:37;;;;;;;12.25;3.95;;;11.30;99.90;;;;;;5001316;28;20053;-75
2024/02/18 00:19:03;;;;;;;14.38;4.22;;;11.20;99.90;;;;;;4977133;28;20022;-74
2024/02/18 00:21:29;;;;;;;11.38;4.40;;;11.20;99.90;;;;;;4998661;28;20034;-75
2024/02/18 00:23:58;;;;;;;7.65;3.80;;;11.30;99.90;;;;;;5002849;28;20502;-74
2024/02/18 00:26:25;;;;;;;11.07;5.05;;;11.20;99.90;;;;;;4997959;28;20056;-75
2024/02/18 00:28:50;;;;;;;11.70;4.63;;;11.20;99.90;;;;;;4994150;28;20018;-75
2024/02/18 00:31:16;;;;;;;10.10;3.85;;;11.20;99.90;;;;;;4995409;28;20365;-75
2024/02/18 00:33:43;;;;;;;11.65;4.30;;;11.20;99.90;;;;;;4996332;28;20588;-75
2024/02/18 00:36:08;;;;;;;10.13;3.70;;;11.30;99.90;;;;;;5005618;28;20041;-74
2024/02/18 00:38:34;;;;;;;12.63;4.15;;;11.20;99.90;;;;;;5000175;28;20490;-74
2024/02/18 00:41:00;;;;;;;10.25;3.85;;;11.30;99.90;;;;;;4994597;28;20429;-74
2024/02/18 00:43:26;;;;;;;13.10;4.38;;;11.30;99.90;;;;;;4999829;28;20562;-74
2024/02/18 00:45:51;;;;;;;9.40;3.80;;;11.30;99.90;;;;;;4991696;28;20031;-74
2024/02/18 00:48:17;;;;;;;10.75;3.90;;;11.20;99.90;;;;;;4992256;28;20037;-73
2024/02/18 00:50:43;;;;;;;12.60;4.10;;;11.30;99.90;;;;;;4998956;28;20093;-74
2024/02/18 00:53:10;;;;;;;9.30;3.33;;;11.30;99.90;;;;;;4985090;28;20030;-75
2024/02/18 00:55:36;;;;;;;12.13;4.35;;;11.30;99.90;;;;;;4995497;28;20038;-75
2024/02/18 00:58:02;;;;;;;13.20;3.97;;;11.20;99.90;;;;;;4995564;28;20109;-75
2024/02/18 01:00:28;;;;;;;10.07;3.40;;;11.20;99.90;;;;;;4993745;28;20084;-74
2024/02/18 01:02:53;;;;;;;12.68;4.20;;;11.20;99.90;;;;;;4998643;28;20027;-74
2024/02/18 01:05:19;;;;;;;10.05;2.92;;;11.20;99.90;;;;;;4988996;28;20026;-74
2024/02/18 01:07:45;;;;;;;8.25;2.92;;;11.20;99.90;;;;;;4980901;28;20033;-74
2024/02/18 01:10:11;;;;;;;7.55;2.63;;;11.20;99.90;;;;;;4994159;28;20109;-74
2024/02/18 01:12:36;;;;;;;8.10;3.10;;;11.20;99.90;;;;;;4983467;28;20022;-74
2024/02/18 01:15:02;;;;;;;10.90;3.10;;;11.20;99.90;;;;;;5000807;28;20052;-74
2024/02/18 01:17:29;;;;;;;7.90;3.00;;;11.20;99.90;;;;;;4994506;28;20026;-74
2024/02/18 01:19:57;;;;;;;10.90;3.85;;;11.20;99.90;;;;;;4996114;28;20143;-73
2024/02/18 01:22:23;;;;;;;14.45;4.05;;;11.20;99.90;;;;;;5002128;28;20514;-74
2024/02/18 01:24:49;;;;;;;8.60;2.80;;;11.20;99.90;;;;;;4997303;28;20352;-74
2024/02/18 01:27:15;;;;;;;9.82;3.33;;;11.20;99.90;;;;;;4992257;28;20296;-75
2024/02/18 01:29:41;;;;;;;10.70;3.83;;;11.20;99.90;;;;;;4995249;28;20033;-74
2024/02/18 01:32:06;;;;;;;10.25;3.33;;;11.20;99.90;;;;;;5000099;28;20033;-74
2024/02/18 01:34:32;;;;;;;5.80;2.80;;;11.20;99.90;;;;;;4993574;28;20711;-75
2024/02/18 01:37:08;;;;;;;7.47;3.00;;;11.20;99.90;;;;;;4995669;28;20030;-75
2024/02/18 01:39:35;;;;;;;9.57;3.13;;;11.20;99.90;;;;;;4983823;28;20030;-75
2024/02/18 01:42:00;;;;;;;10.27;3.00;;;11.20;99.90;;;;;;4999194;28;20026;-75
2024/02/18 01:44:26;;;;;;;11.68;3.40;;;11.20;99.90;;;;;;4993445;28;20037;-76
2024/02/18 01:46:52;;;;;;;7.75;2.70;;;11.20;99.90;;;;;;4993727;28;20030;-75
2024/02/18 01:49:18;;;;;;;12.27;3.63;;;11.20;99.90;;;;;;4996458;28;20021;-75
2024/02/18 01:51:45;;;;;;;6.60;3.00;;;11.30;99.90;;;;;;5001266;28;20022;-75
2024/02/18 01:54:11;;;;;;;10.00;3.35;;;11.30;99.90;;;;;;4997220;28;20022;-74
2024/02/18 01:56:39;;;;;;;10.00;3.28;;;11.30;99.90;;;;;;4993098;28;20026;-75
2024/02/18 01:59:05;;;;;;;13.43;3.90;;;11.30;99.90;;;;;;4981708;28;20041;-75
2024/02/18 02:01:31;;;;;;;7.15;3.10;;;11.30;99.90;;;;;;4987605;28;20026;-75
2024/02/18 02:03:58;;;;;;;9.98;3.72;;;11.30;99.90;;;;;;4986714;28;20037;-76
2024/02/18 02:06:25;;;;;;;8.63;3.05;;;11.30;99.90;;;;;;5003145;28;20029;-75
2024/02/18 02:08:51;;;;;;;10.88;3.95;;;11.30;99.90;;;;;;4993150;28;20026;-75
2024/02/18 02:11:17;;;;;;;8.43;3.20;;;11.30;99.90;;;;;;4996365;28;20590;-75
2024/02/18 02:13:42;;;;;;;8.70;3.22;;;11.40;99.90;;;;;;5000939;28;20040;-74
2024/02/18 02:16:08;;;;;;;10.45;3.90;;;11.40;99.90;;;;;;4976601;28;20082;-75
2024/02/18 02:18:34;;;;;;;7.72;3.08;;;11.40;99.90;;;;;;4993123;28;20034;-75
2024/02/18 02:21:00;;;;;;;9.05;3.70;;;11.40;99.90;;;;;;5000032;28;20026;-75
2024/02/18 02:23:25;;;;;;;11.65;3.60;;;11.40;99.90;;;;;;4987677;28;20033;-75
2024/02/18 02:25:52;;;;;;;11.30;3.63;;;11.30;99.90;;;;;;5000544;28;20126;-75
2024/02/18 02:28:26;;;;;;;9.95;3.15;;;11.40;99.90;;;;;;4997288;28;20121;-74
2024/02/18 02:30:52;;;;;;;8.80;3.63;;;11.40;99.90;;;;;;4992227;28;20063;-75
2024/02/18 02:33:20;;;;;;;9.98;3.47;;;11.30;99.90;;;;;;5000895;28;20041;-75
2024/02/18 02:35:46;;;;;;;8.25;3.03;;;11.30;99.90;;;;;;5000273;28;20040;-75
2024/02/18 02:38:12;;;;;;;7.50;2.97;;;11.30;99.90;;;;;;4976794;28;20022;-75
2024/02/18 02:40:38;;;;;;;8.60;2.90;;;11.30;99.90;;;;;;4992300;28;20041;-75
2024/02/18 02:43:04;;;;;;;11.10;3.10;;;11.30;99.90;;;;;;4978907;28;20021;-75
2024/02/18 02:45:31;;;;;;;8.20;3.15;;;11.30;99.90;;;;;;5002100;28;20032;-75
2024/02/18 02:47:57;;;;;;;11.77;3.22;;;11.30;99.90;;;;;;4992314;28;20105;-75
2024/02/18 02:50:22;;;;;;;9.18;3.00;;;11.30;99.90;;;;;;4999742;28;20500;-75
2024/02/18 02:52:48;;;;;;;7.88;3.22;;;11.30;99.90;;;;;;4998811;28;20022;-75
2024/02/18 02:55:14;;;;;;;8.77;3.03;;;11.30;99.90;;;;;;4974136;28;20017;-75
2024/02/18 02:57:40;;;;;;;11.55;3.47;;;11.30;99.90;;;;;;4996254;28;20022;-74
2024/02/18 03:00:09;;;;;;;7.32;2.63;;;11.30;99.90;;;;;;4999718;28;20029;-75
2024/02/18 03:02:41;;;;;;;10.30;3.17;;;11.30;99.90;;;;;;4994969;28;20033;-74
2024/02/18 03:05:11;;;;;;;10.05;2.92;;;11.30;99.90;;;;;;4974018;28;20026;-75
2024/02/18 03:07:36;;;;;;;7.30;3.10;;;11.30;99.90;;;;;;4980439;28;20157;-74
2024/02/18 03:10:04;;;;;;;9.35;3.58;;;11.30;99.90;;;;;;4999600;28;20101;-75
2024/02/18 03:12:30;;;;;;;10.20;3.58;;;11.30;99.90;;;;;;4992957;28;20018;-75
2024/02/18 03:14:56;;;;;;;8.75;2.63;;;11.20;99.90;;;;;;4993183;28;20042;-75
2024/02/18 03:17:22;;;;;;;10.98;2.83;;;11.20;99.90;;;;;;5000225;28;20506;-75
2024/02/18 03:19:48;;;;;;;7.68;2.75;;;11.20;99.90;;;;;;4995980;28;20026;-75
2024/02/18 03:22:23;;;;;;;6.70;2.55;;;11.20;99.90;;;;;;4972213;28;20488;-75
2024/02/18 03:24:49;;;;;;;8.07;2.63;;;11.20;99.90;;;;;;4968295;28;20026;-74
2024/02/18 03:27:16;;;;;;;7.65;2.92;;;11.20;99.90;;;;;;5003970;28;20045;-75
2024/02/18 03:29:42;;;;;;;8.93;3.00;;;11.20;99.90;;;;;;4997794;28;20091;-74
2024/02/18 03:32:08;;;;;;;6.95;3.17;;;11.10;99.90;;;;;;4996332;28;20030;-75
2024/02/18 03:34:33;;;;;;;10.00;3.42;;;11.10;99.90;;;;;;4986433;28;20030;-75
2024/02/18 03:36:59;;;;;;;8.77;3.22;;;11.10;99.90;;;;;;4997009;28;20076;-75
2024/02/18 03:39:25;;;;;;;9.00;3.17;;;11.10;99.90;;;;;;5004028;28;20018;-75
2024/02/18 03:41:51;;;;;;;11.57;3.45;;;11.00;99.90;;;;;;4999254;28;20075;-74
2024/02/18 03:44:16;;;;;;;11.20;3.65;;;11.00;99.90;;;;;;4996421;28;20034;-75
2024/02/18 03:46:43;;;;;;;11.57;3.45;;;11.00;99.90;;;;;;4991174;28;20033;-74
2024/02/18 03:49:09;;;;;;;8.45;3.38;;;11.00;99.90;;;;;;4998149;28;20467;-74
2024/02/18 03:51:35;;;;;;;8.13;2.80;;;10.90;99.90;;;;;;4991920;28;20030;-75
2024/02/18 03:54:01;;;;;;;7.38;3.30;;;10.90;99.90;;;;;;5001643;28;20468;-75
2024/02/18 03:56:26;;;;;;;10.15;3.13;;;10.90;99.90;;;;;;5003250;28;20029;-74
2024/02/18 03:58:52;;;;;;;6.88;2.60;;;10.90;99.90;;;;;;4981311;28;20520;-75
2024/02/18 04:01:18;;;;;;;8.82;3.17;;;10.90;99.90;;;;;;4983824;28;20157;-75
2024/02/18 04:03:44;;;;;;;10.07;3.42;;;10.90;99.90;;;;;;4993712;28;20018;-75
2024/02/18 04:06:09;;;;;;;8.20;2.83;;;10.90;99.90;;;;;;4981108;28;20480;-75
2024/02/18 04:08:35;;;;;;;6.88;3.08;;;10.90;99.90;;;;;;5003680;28;20121;-75
2024/02/18 04:11:01;;;;;;;8.27;3.10;;;10.90;99.90;;;;;;4996906;28;20041;-74
2024/02/18 04:13:27;;;;;;;9.68;3.10;;;10.90;99.90;;;;;;4995563;28;20018;-75
2024/02/18 04:15:52;;;;;;;14.65;4.40;;;10.90;99.90;;;;;;5002190;28;20496;-75
2024/02/18 04:18:18;;;;;;;7.85;2.75;;;10.90;99.90;;;;;;4983663;28;20124;-74
2024/02/18 04:20:44;;;;;;;7.95;3.22;;;10.90;99.90;;;;;;4994496;28;20021;-74
2024/02/18 04:23:10;;;;;;;9.35;3.35;;;10.90;99.90;;;;;;4998874;28;20034;-75
2024/02/18 04:25:36;;;;;;;7.20;3.10;;;10.90;99.90;;;;;;4988992;28;20026;-75
2024/02/18 04:28:02;;;;;;;11.40;2.95;;;10.90;99.90;;;;;;4971881;28;20018;-74
2024/02/18 04:30:28;;;;;;;9.75;3.10;;;10.90;99.90;;;;;;5005887;28;20066;-75
2024/02/18 04:32:53;;;;;;;13.05;3.33;;;10.90;99.90;;;;;;4998975;28;20112;-75
2024/02/18 04:35:19;;;;;;;9.85;3.55;;;10.90;99.90;;;;;;4996778;28;20023;-75
2024/02/18 04:37:45;;;;;;;7.95;3.40;;;10.90;99.90;;;;;;4981798;28;20528;-78
2024/02/18 04:40:12;;;;;;;8.18;3.53;;;10.80;99.90;;;;;;4998315;28;20641;-75
2024/02/18 04:42:37;;;;;;;9.57;3.53;;;10.80;99.90;;;;;;5002939;28;20387;-74
2024/02/18 04:45:04;;;;;;;11.10;3.20;;;10.80;99.90;;;;;;4992366;28;20022;-74
2024/02/18 04:47:31;;;;;;;6.40;2.95;;;10.70;99.90;;;;;;4999267;28;20560;-75
2024/02/18 04:49:57;;;;;;;14.77;4.35;;;10.70;99.90;;;;;;4991787;28;20025;-75
2024/02/18 04:52:22;;;;;;;11.05;3.33;;;10.70;99.90;;;;;;4997825;28;20105;-74
2024/02/18 04:54:48;;;;;;;6.95;3.25;;;10.60;99.90;;;;;;4994470;28;20022;-75
2024/02/18 04:57:14;;;;;;;12.52;3.47;;;10.60;99.90;;;;;;5001268;28;20785;-74
2024/02/18 04:59:40;;;;;;;10.63;3.20;;;10.60;99.90;;;;;;5004650;28;20121;-75
2024/02/18 05:02:07;;;;;;;9.57;4.30;;;10.50;99.90;;;;;;4976998;28;20033;-75
2024/02/18 05:04:33;;;;;;;10.63;3.50;;;10.50;99.90;;;;;;4997599;28;20469;-75
2024/02/18 05:06:59;;;;;;;16.70;4.18;;;10.50;99.90;;;;;;5001957;28;20034;-75
2024/02/18 05:09:25;;;;;;;18.98;4.40;;;10.40;99.90;;;;;;4997585;28;20522;-74
2024/02/18 05:11:50;;;;;;;8.95;3.72;;;10.40;99.90;;;;;;4993728;28;20064;-74
2024/02/18 05:14:16;;;;;;;11.77;3.35;;;10.40;99.90;;;;;;5000838;28;20829;-73
2024/02/18 05:16:43;;;;;;;10.07;3.97;;;10.40;99.90;;;;;;4987768;28;20066;-74
2024/02/18 05:19:09;;;;;;;8.40;3.65;;;10.30;99.90;;;;;;4988467;28;20037;-73
2024/02/18 05:21:38;;;;;;;8.98;4.03;;;10.30;99.90;;;;;;4987986;28;20824;-74
2024/02/18 05:24:04;;;;;;;13.13;3.42;;;10.30;99.90;;;;;;4988103;28;20069;-74
2024/02/18 05:26:30;;;;;;;10.98;3.80;;;10.30;99.90;;;;;;4970529;28;20034;-74
2024/02/18 05:28:56;;;;;;;10.30;3.80;;;10.20;99.90;;;;;;4991610;28;20038;-74
2024/02/18 05:31:23;;;;;;;8.77;3.90;;;10.20;99.90;;;;;;4996026;28;20029;-74
2024/02/18 05:33:50;;;;;;;11.30;3.80;;;10.20;99.90;;;;;;4994186;28;20074;-74
2024/02/18 05:36:16;;;;;;;12.00;4.47;;;10.10;99.90;;;;;;4973986;28;20031;-75
2024/02/18 05:38:43;;;;;;;11.25;4.15;;;10.10;99.90;;;;;;4987953;28;20018;-73
2024/02/18 05:41:09;;;;;;;10.32;3.80;;;10.10;99.90;;;;;;4987544;28;20057;-73
2024/02/18 05:43:35;;;;;;;15.80;4.45;;;10.10;99.90;;;;;;4988041;28;20026;-74
2024/02/18 05:46:01;;;;;;;20.55;4.63;;;10.10;99.90;;;;;;4999134;28;20033;-74
2024/02/18 05:48:26;;;;;;;11.88;3.80;;;10.00;99.90;;;;;;4993490;28;20014;-74
2024/02/18 05:50:52;;;;;;;11.05;3.53;;;10.00;99.90;;;;;;4996161;28;20030;-74
2024/02/18 05:53:18;;;;;;;7.50;3.67;;;10.00;99.90;;;;;;5001801;28;20423;-74
2024/02/18 05:55:43;;;;;;;8.32;3.67;;;10.00;99.90;;;;;;4995059;28;20321;-74
2024/02/18 05:58:12;;;;;;;8.35;4.05;;;10.00;99.90;;;;;;4993159;28;20030;-74
2024/02/18 06:00:38;;;;;;;10.48;3.95;;;10.00;99.90;;;;;;4997597;28;20034;-74
2024/02/18 06:03:05;;;;;;;8.02;3.78;;;10.00;99.90;;;;;;4994405;28;20030;-73
2024/02/18 06:05:31;;;;;;;9.27;4.30;;;10.00;99.90;;;;;;5000749;28;20480;-74
2024/02/18 06:07:57;;;;;;;14.65;4.60;;;10.00;99.90;;;;;;4980294;28;20026;-74
2024/02/18 06:10:24;;;;;;;11.00;3.97;;;10.00;99.90;;;;;;4972555;28;20073;-74
2024/02/18 06:12:50;;;;;;;9.75;4.03;;;9.90;99.90;;;;;;4985849;28;20511;-74
2024/02/18 06:15:15;;;;;;;14.65;4.45;;;9.90;99.90;;;;;;4975725;28;20047;-74
2024/02/18 06:17:41;;;;;;;13.05;4.43;;;9.90;99.90;;;;;;4994430;28;20022;-75
2024/02/18 06:20:13;;;;;;;11.00;4.40;;;9.90;99.90;;;;;;4994275;28;20031;-75
2024/02/18 06:22:39;;;;;;;11.55;4.13;;;9.90;99.90;;;;;;4979523;28;20849;-74
2024/02/18 06:25:07;;;;;;;10.05;4.32;;;9.90;99.90;;;;;;4995760;28;20035;-74
2024/02/18 06:27:34;;;;;;;14.68;4.63;;;9.90;99.90;;;;;;5000466;28;20030;-76
2024/02/18 06:30:04;;;;;;;13.63;4.65;;;9.90;99.90;;;;;;4974205;28;20073;-74
2024/02/18 06:32:30;;;;;;;13.95;4.93;;;9.80;99.90;;;;;;5006565;28;20018;-74
2024/02/18 06:34:56;;;;;;;13.52;4.43;;;9.80;99.90;;;;;;5000299;28;20034;-73
2024/02/18 06:37:22;;;;;;;11.63;4.75;;;9.80;99.90;;;;;;4993990;28;20027;-74
2024/02/18 06:39:47;;;;;;;8.15;3.85;;;9.80;99.90;;;;;;4969085;28;20087;-73
2024/02/18 06:42:13;;;;;;;10.85;4.60;;;9.80;99.90;;;;;;4999040;28;20476;-74
2024/02/18 06:44:39;;;;;;;9.18;3.97;;;9.80;99.90;;;;;;4973682;28;20042;-73
2024/02/18 06:47:04;;;;;;;11.98;4.40;;;9.80;99.90;;;;;;4993385;28;20166;-74
2024/02/18 06:49:31;;;;;;;15.55;4.50;;;9.70;99.90;;;;;;4976094;28;20085;-74
2024/02/18 06:51:57;;;;;;;11.43;4.43;;;9.70;99.90;;;;;;5000247;28;20034;-74
2024/02/18 06:54:23;;;;;;;10.43;3.47;;;9.70;99.90;;;;;;4980371;28;20135;-74
2024/02/18 06:56:49;;;;;;;10.20;3.95;;;9.70;99.90;;;;;;4988596;28;20455;-74
2024/02/18 06:59:15;;;;;;;13.40;4.10;;;9.70;99.90;;;;;;4986812;28;20490;-75
2024/02/18 07:01:42;;;;;;;13.65;4.05;;;9.70;99.90;;;;;;4981474;28;20040;-74
2024/02/18 07:04:08;;;;;;;10.85;3.67;;;9.70;99.90;;;;;;4995570;28;20053;-74
2024/02/18 07:06:34;;;;;;;10.32;3.67;;;9.70;99.90;;;;;;4996917;28;20022;-75
2024/02/18 07:08:59;;;;;;;14.18;3.78;;;9.70;99.90;;;;;;5001791;28;20018;-74
2024/02/18 07:11:26;;;;;;;8.25;3.20;;;9.70;99.90;;;;;;4986446;28;20065;-75
2024/02/18 07:13:52;;;;;;;10.77;3.80;;;9.70;99.90;;;;;;5000149;28;20105;-74
2024/02/18 07:16:19;;;;;;;8.85;3.33;;;9.70;99.90;;;;;;4995442;28;20041;-74
2024/02/18 07:18:45;;;;;;;9.73;3.20;;;9.70;99.90;;;;;;4992318;28;20062;-74
2024/02/18 07:21:14;;;;;;;12.98;3.45;;;9.70;99.90;;;;;;4997905;28;20023;-74
2024/02/18 07:23:40;;;;;;;10.02;3.08;;;9.70;99.90;;;;;;5000388;28;20476;-74
2024/02/18 07:26:10;;;;;;;12.60;4.15;;;9.70;99.90;;;;;;4992260;28;20037;-74
2024/02/18 07:28:36;;;;;;;12.02;3.05;;;9.70;99.90;;;;;;4975716;28;20526;-75
2024/02/18 07:31:02;;;;;;;8.15;3.58;;;9.70;99.90;;;;;;4995069;28;20018;-75
2024/02/18 07:33:28;;;;;;;10.05;3.03;;;9.70;99.90;;;;;;5004681;28;20029;-74
2024/02/18 07:35:53;;;;;;;9.88;3.10;;;9.70;99.90;;;;;;4991279;28;20598;-74
2024/02/18 07:38:19;;;;;;;13.95;3.40;;;9.70;99.90;;;;;;5002738;28;20021;-75
2024/02/18 07:40:45;;;;;;;11.18;3.58;;;9.60;99.90;;;;;;4996106;28;20026;-74
2024/02/18 07:43:11;;;;;;;12.00;3.50;;;9.60;99.90;;;;;;4999455;28;20121;-74
2024/02/18 07:45:37;;;;;;;11.75;3.17;;;9.60;99.90;;;;;;4972164;28;20499;-74
2024/02/18 07:48:03;;;;;;;10.85;3.58;;;9.60;99.90;;;;;;4999944;28;20054;-74
2024/02/18 07:50:29;;;;;;;10.45;3.17;;;9.60;99.90;;;;;;4991394;28;20010;-74
2024/02/18 07:52:54;;;;;;;13.70;4.18;;;9.60;99.90;;;;;;4974814;28;20102;-74
2024/02/18 07:55:20;;;;;;;7.80;3.40;;;9.50;99.90;;;;;;4999704;28;20019;-73
2024/02/18 07:57:46;;;;;;;10.15;4.35;;;9.50;99.90;;;;;;4996087;28;20112;-74
2024/02/18 08:00:14;;;;;;;17.42;4.13;;;9.50;99.90;;;;;;4991979;28;20545;-74
2024/02/18 08:02:40;;;;;;;8.95;3.60;;;9.50;99.90;;;;;;4978111;28;20527;-75
2024/02/18 08:05:09;;;;;;;14.77;4.40;;;9.50;99.90;;;;;;4999988;28;20022;-75
2024/02/18 08:07:36;;;;;;;12.82;4.35;;;9.50;99.90;;;;;;4986293;28;20500;-75
2024/02/18 08:10:02;;;;;;;8.95;4.50;;;9.40;99.90;;;;;;4985839;28;20026;-74
2024/02/18 08:12:28;;;;;;;9.95;3.95;;;9.40;99.90;;;;;;4983933;28;20107;-75
2024/02/18 08:14:54;;;;;;;11.45;4.35;;;9.40;99.90;;;;;;4996986;28;20552;-76
2024/02/18 08:17:19;;;;;;;11.30;4.63;;;9.40;99.90;;;;;;5002543;28;20426;-75
2024/02/18 08:19:45;;;;;;;12.80;4.25;;;9.40;99.90;;;;;;4998313;28;20085;-74
2024/02/18 08:22:11;;;;;;;9.13;4.28;;;9.40;99.90;;;;;;4995164;28;20373;-75
2024/02/18 08:24:37;;;;;;;10.07;3.80;;;9.30;99.90;;;;;;4994015;28;20488;-74
2024/02/18 08:27:03;;;;;;;10.27;4.28;;;9.30;99.90;;;;;;4988506;28;20034;-75
2024/02/18 08:29:28;;;;;;;14.57;4.95;;;9.30;99.90;;;;;;4987165;28;20499;-73
2024/02/18 08:31:54;;;;;;;12.27;4.57;;;9.30;99.90;;;;;;4986201;28;20062;-73
2024/02/18 08:34:20;;;;;;;15.23;4.85;;;9.30;99.90;;;;;;4977369;28;20027;-75
2024/02/18 08:36:46;;;;;;;16.08;5.30;;;9.30;99.90;;;;;;4991346;28;20374;-74
2024/02/18 08:39:12;;;;;;;14.93;4.50;;;9.20;99.90;;;;;;5008079;28;20041;-74
2024/02/18 08:41:38;;;;;;;15.02;5.07;;;9.20;99.90;;;;;;5006362;28;20033;-73
2024/02/18 08:44:03;;;;;;;16.73;4.70;;;9.20;99.90;;;;;;4983847;28;20113;-74
2024/02/18 08:46:30;;;;;;;12.82;4.63;;;9.20;99.90;;;;;;4964731;28;20031;-75
2024/02/18 08:48:56;;;;;;;18.70;5.78;;;9.20;99.90;;;;;;4990192;28;20448;-74
2024/02/18 08:51:21;;;;;;;14.18;4.82;;;9.10;99.90;;;;;;4988769;28;20110;-74
2024/02/18 08:53:47;;;;;;;13.25;4.72;;;9.10;99.90;;;;;;4991991;28;20056;-75
2024/02/18 08:56:13;;;;;;;14.27;4.60;;;9.10;99.90;;;;;;4990310;28;20029;-75
2024/02/18 08:58:39;;;;;;;13.75;5.32;;;9.10;99.90;;;;;;4971978;28;20033;-75
2024/02/18 09:01:06;;;;;;;14.70;5.22;;;9.10;99.90;;;;;;4998054;28;20145;-74
2024/02/18 09:03:31;;;;;;;10.95;4.82;;;9.00;99.90;;;;;;4996738;28;20027;-73
2024/02/18 09:05:58;;;;;;;14.73;4.88;;;9.00;99.90;;;;;;4990247;28;20029;-74
2024/02/18 09:08:24;;;;;;;12.63;4.38;;;9.00;99.90;;;;;;4985503;28;20022;-74
2024/02/18 09:10:53;;;;;;;10.60;4.68;;;9.00;99.90;;;;;;4985204;28;20026;-74
2024/02/18 09:13:20;;;;;;;13.48;5.20;;;8.90;99.90;;;;;;4988688;28;20399;-74
2024/02/18 09:15:46;;;;;;;13.13;4.95;;;8.90;99.90;;;;;;4970674;28;20575;-73
2024/02/18 09:18:12;;;;;;;16.55;5.45;;;8.90;99.90;;;;;;4988113;28;20042;-73
2024/02/18 09:20:37;;;;;;;16.88;5.70;;;8.90;99.90;;;;;;4985008;28;20074;-73
2024/02/18 09:23:03;;;;;;;13.57;5.93;;;8.90;99.90;;;;;;4965274;28;20023;-73
2024/02/18 09:25:29;;;;;;;14.32;4.93;;;8.90;99.90;;;;;;4999557;28;20074;-74
2024/02/18 09:27:55;;;;;;;11.80;5.47;;;8.80;99.90;;;;;;4999744;28;20026;-74
2024/02/18 09:30:21;;;;;;;11.63;5.35;;;8.80;99.90;;;;;;4995432;28;20018;-74
2024/02/18 09:32:46;;;;;;;14.63;5.43;;;8.80;99.90;;;;;;4999007;28;20034;-75
2024/02/18 09:35:12;;;;;;;12.95;4.82;;;8.80;99.90;;;;;;4991392;28;20018;-73
2024/02/18 09:37:38;;;;;;;15.38;5.43;;;8.80;99.90;;;;;;4986952;28;20034;-74
2024/02/18 09:40:05;;;;;;;12.63;5.70;;;8.80;99.90;;;;;;4993784;28;20026;-74
2024/02/18 09:42:39;;;;;;;10.40;4.50;;;8.80;99.90;;;;;;4999909;28;20048;-73
2024/02/18 09:45:06;;;;;;;7.82;4.75;;;8.80;99.90;;;;;;4991600;28;20101;-74
2024/02/18 09:47:33;;;;;;;19.30;5.50;;;8.80;99.90;;;;;;4998157;28;20017;-73
2024/02/18 09:50:00;;;;;;;17.13;5.53;;;8.80;99.90;;;;;;4991689;28;20037;-75
2024/02/18 09:52:25;;;;;;;12.07;4.47;;;8.80;99.90;;;;;;4998027;28;20026;-74
2024/02/18 09:54:54;;;;;;;13.60;4.70;;;8.80;99.90;;;;;;4988189;28;20026;-75
2024/02/18 09:57:20;;;;;;;14.90;4.95;;;8.80;99.90;;;;;;4999711;28;20026;-74
2024/02/18 09:59:46;;;;;;;12.13;4.95;;;8.80;99.90;;;;;;5001289;28;20022;-74
2024/02/18 10:02:13;;;;;;;14.98;5.15;;;8.80;99.90;;;;;;4993085;28;20677;-74
2024/02/18 10:04:39;;;;;;;13.90;5.13;;;8.80;99.90;;;;;;4995880;28;20050;-73
2024/02/18 10:07:05;;;;;;;17.15;4.90;;;8.80;99.90;;;;;;5000339;28;20101;-74
2024/02/18 10:09:31;;;;;;;8.25;4.38;;;8.80;99.90;;;;;;4991573;28;20082;-74
2024/02/18 10:12:00;;;;;;;15.73;5.93;;;8.80;99.90;;;;;;4981966;28;20453;-74
2024/02/18 10:14:26;;;;;;;10.57;4.35;;;8.80;99.90;;;;;;4996656;28;20556;-74
2024/02/18 10:16:52;;;;;;;15.55;4.65;;;8.80;99.90;;;;;;4968598;28;20129;-74
2024/02/18 10:19:18;;;;;;;15.52;4.75;;;8.80;99.90;;;;;;4985479;28;20623;-74
2024/02/18 10:21:44;;;;;;;16.50;4.97;;;8.80;99.90;;;;;;4977422;28;20033;-74
2024/02/18 10:24:11;;;;;;;12.15;4.55;;;8.80;99.90;;;;;;4983301;28;20105;-74
2024/02/18 10:26:38;;;;;;;11.35;4.70;;;8.80;99.90;;;;;;4986508;28;20133;-75
2024/02/18 10:29:05;;;;;;;14.02;4.00;;;8.80;99.90;;;;;;4969252;28;20030;-74
2024/02/18 10:31:34;;;;;;;11.07;4.20;;;8.80;99.90;;;;;;4985338;28;20034;-74
2024/02/18 10:34:00;;;;;;;14.80;5.13;;;8.80;99.90;;;;;;4981550;28;20019;-74
2024/02/18 10:36:26;;;;;;;11.13;4.05;;;8.80;99.90;;;;;;4987650;28;20038;-75
2024/02/18 10:38:58;;;;;;;8.45;3.55;;;8.80;99.90;;;;;;4989404;28;20046;-74
2024/02/18 10:41:42;;;;;;;10.88;4.30;;;8.80;99.90;;;;;;4977096;28;20034;-74
2024/02/18 10:44:11;;;;;;;16.38;4.00;;;8.80;99.90;;;;;;4987360;28;20050;-74
2024/02/18 10:46:40;;;;;;;13.77;4.18;;;8.80;99.90;;;;;;4986241;28;20072;-74
2024/02/18 10:49:19;;;;;;;10.48;3.70;;;8.80;99.90;;;;;;4986587;28;20077;-74
2024/02/18 10:51:49;;;;;;;8.13;3.85;;;8.80;99.90;;;;;;4972011;28;20025;-74
2024/02/18 10:54:54;;;;;;;15.95;4.20;;;8.80;99.90;;;;;;4979059;28;20369;-74
2024/02/18 10:57:26;;;;;;;14.27;3.83;;;8.80;99.90;;;;;;4973378;28;20583;-75
2024/02/18 11:00:12;;;;;;;9.60;3.95;;;8.80;99.90;;;;;;4986417;28;20436;-74
2024/02/18 11:02:47;;;;;;;9.65;3.90;;;8.80;99.90;;;;;;4970754;28;20136;-75
2024/02/18 11:05:14;;;;;;;10.00;3.72;;;8.80;99.90;;;;;;4985342;28;20077;-74
2024/02/18 11:07:41;;;;;;;10.23;4.18;;;8.80;99.90;;;;;;4969156;28;20084;-73
2024/02/18 11:10:08;;;;;;;13.65;3.90;;;8.80;99.90;;;;;;4975401;28;20031;-74
2024/02/18 11:12:35;;;;;;;9.00;3.55;;;8.80;99.90;;;;;;4992205;28;20026;-74
2024/02/18 11:15:03;;;;;;;11.30;4.10;;;8.80;99.90;;;;;;4979211;28;20042;-74
2024/02/18 11:17:30;;;;;;;12.02;3.78;;;8.80;99.90;;;;;;4984438;28;20806;-75
2024/02/18 11:19:57;;;;;;;11.07;3.28;;;8.80;99.90;;;;;;4980093;28;20638;-74
2024/02/18 11:22:23;;;;;;;10.02;3.40;;;8.80;99.90;;;;;;4973317;28;20034;-74
2024/02/18 11:24:51;;;;;;;11.35;3.35;;;8.80;99.90;;;;;;4962583;28;20042;-75
2024/02/18 11:27:17;;;;;;;8.20;3.17;;;8.80;99.90;;;;;;4965202;28;20034;-74
2024/02/18 11:30:02;;;;;;;9.35;3.03;;;8.80;99.90;;;;;;4994279;28;20022;-74
2024/02/18 11:32:28;;;;;;;11.82;2.85;;;8.80;99.90;;;;;;4981136;28;20029;-74
2024/02/18 11:34:54;;;;;;;8.43;3.20;;;8.80;99.90;;;;;;4981405;28;20484;-74
2024/02/18 11:37:31;;;;;;;11.45;2.88;;;8.80;99.90;;;;;;4990509;28;20041;-74
2024/02/18 11:40:09;;;;;;;13.55;3.60;;;8.80;99.90;;;;;;4984209;28;20074;-74
2024/02/18 11:42:37;;;;;;;10.48;3.38;;;8.80;99.90;;;;;;4959287;28;20666;-75
2024/02/18 11:45:10;;;;;;;10.93;3.03;;;8.80;99.90;;;;;;4984617;28;20101;-74
2024/02/18 11:47:37;;;;;;;9.23;3.00;;;8.80;99.90;;;;;;4986825;28;20133;-73
2024/02/18 11:50:04;;;;;;;7.53;3.05;;;8.80;99.90;;;;;;4975836;28;20018;-73
2024/02/18 11:52:30;;;;;;;9.23;2.97;;;8.80;99.90;;;;;;4980622;28;20108;-73
2024/02/18 11:54:56;;;;;;;10.05;3.00;;;8.90;99.90;;;;;;4999968;28;20124;-74
2024/02/18 11:57:22;;;;;;;8.25;2.88;;;8.90;99.90;;;;;;4992758;28;20120;-74
2024/02/18 11:59:48;;;;;;;11.60;3.22;;;8.90;99.90;;;;;;4982512;28;20158;-75
2024/02/18 12:02:18;;;;;;;7.40;3.28;;;8.80;99.90;;;;;;4958842;28;20480;-74
2024/02/18 12:04:44;;;;;;;7.53;3.13;;;8.80;99.90;;;;;;4983314;28;20034;-75
2024/02/18 12:07:10;;;;;;;9.35;3.22;;;8.80;99.90;;;;;;4980199;28;20056;-74
2024/02/18 12:09:36;;;;;;;11.77;3.22;;;8.80;99.90;;;;;;4998430;28;20821;-74
2024/02/18 12:12:02;;;;;;;11.98;3.10;;;8.80;99.90;;;;;;4994962;28;20022;-74
2024/02/18 12:14:29;;;;;;;7.75;3.42;;;8.80;99.90;;;;;;5000923;28;20019;-74
2024/02/18 12:16:55;;;;;;;13.68;4.55;;;8.80;99.90;;;;;;5002153;28;20022;-75
2024/02/18 12:19:21;;;;;;;18.25;4.43;;;8.80;99.90;;;;;;4996209;28;20022;-74
2024/02/18 12:21:53;;;;;;;12.27;3.95;;;8.80;99.90;;;;;;4995972;28;20507;-74
2024/02/18 12:24:20;;;;;;;7.95;3.38;;;8.80;99.90;;;;;;4985269;28;20026;-74
2024/02/18 12:26:46;;;;;;;10.93;3.20;;;8.80;99.90;;;;;;4984589;28;20034;-74
2024/02/18 12:29:12;;;;;;;9.23;3.75;;;8.80;99.90;;;;;;4995367;28;20495;-73
2024/02/18 12:31:41;;;;;;;10.30;3.47;;;8.80;99.90;;;;;;4991841;28;20163;-74
2024/02/18 12:34:08;;;;;;;15.80;3.65;;;8.80;99.90;;;;;;4974022;28;20014;-74
2024/02/18 12:36:34;;;;;;;11.18;3.72;;;8.80;99.90;;;;;;4970101;28;20041;-73
2024/02/18 12:39:00;;;;;;;12.48;3.95;;;8.80;99.90;;;;;;4974872;28;20026;-75
2024/02/18 12:41:26;;;;;;;7.57;3.75;;;8.80;99.90;;;;;;4997253;28;20578;-74
2024/02/18 12:43:51;;;;;;;5.22;3.47;;;8.80;99.90;;;;;;4971438;28;20034;-74